createdAt,value
2023-11-27T00:03:21.330Z,100.00
2023-11-27T00:08:24.508Z,100.00
2023-11-27T00:13:27.831Z,100.00
2023-11-27T00:18:32.292Z,100.00
2023-11-27T00:23:35.443Z,100.00
2023-11-27T00:28:38.932Z,100.00
2023-11-27T00:33:43.474Z,100.00
2023-11-27T00:38:46.622Z,100.00
2023-11-27T00:43:52.064Z,100.00
2023-11-27T00:48:56.606Z,100.00
2023-11-27T00:53:59.788Z,100.00
2023-11-27T00:59:02.928Z,100.00
2023-11-27T01:04:08.033Z,100.00
2023-11-27T01:09:12.878Z,100.00
2023-11-27T01:14:16.605Z,100.00
2023-11-27T01:19:21.174Z,100.00
2023-11-27T01:24:24.671Z,100.00
2023-11-27T01:29:27.895Z,100.00
2023-11-27T01:34:33.790Z,100.00
2023-11-27T01:39:37.705Z,100.00
2023-11-27T01:44:41.374Z,100.00
2023-11-27T01:49:47.716Z,100.00
2023-11-27T01:54:51.361Z,100.00
2023-11-27T01:59:58.010Z,100.00
2023-11-27T02:05:02.570Z,100.00
2023-11-27T02:10:07.563Z,100.00
2023-11-27T02:15:12.982Z,100.00
2023-11-27T02:20:17.715Z,100.00
2023-11-27T02:25:22.255Z,100.00
2023-11-27T02:30:25.896Z,100.00
2023-11-27T02:35:31.702Z,100.00
2023-11-27T02:40:37.644Z,100.00
2023-11-27T02:45:42.470Z,100.00
2023-11-27T02:50:45.633Z,100.00
2023-11-27T02:55:50.114Z,100.00
2023-11-27T03:00:53.318Z,100.00
2023-11-27T03:05:56.478Z,100.00
2023-11-27T03:11:00.985Z,100.00
2023-11-27T03:16:04.541Z,100.00
2023-11-27T03:21:08.816Z,100.00
2023-11-27T03:26:13.950Z,100.00
2023-11-27T03:31:17.416Z,100.00
2023-11-27T03:36:20.598Z,100.00
2023-11-27T03:41:25.331Z,100.00
2023-11-27T03:46:28.525Z,100.00
2023-11-27T03:51:32.445Z,100.00
2023-11-27T03:56:37.002Z,100.00
2023-11-27T04:01:40.210Z,100.00
2023-11-27T04:06:46.431Z,100.00
2023-11-27T04:11:51.100Z,100.00
2023-11-27T04:16:54.350Z,100.00
2023-11-27T04:21:57.572Z,100.00
2023-11-27T04:27:02.562Z,100.00
2023-11-27T04:32:06.468Z,100.00
2023-11-27T04:37:12.040Z,100.00
2023-11-27T04:42:16.622Z,100.00
2023-11-27T04:47:19.861Z,100.00
2023-11-27T04:52:24.143Z,100.00
2023-11-27T04:57:28.824Z,100.00
2023-11-27T05:02:32.064Z,100.00
2023-11-27T05:07:35.315Z,100.00
2023-11-27T05:12:40.504Z,100.00
2023-11-27T05:17:43.782Z,100.00
2023-11-27T05:22:47.118Z,100.00
2023-11-27T05:27:51.695Z,100.00
2023-11-27T05:32:54.948Z,100.00
2023-11-27T05:37:58.255Z,100.00
2023-11-27T05:43:06.492Z,100.00
2023-11-27T05:48:10.036Z,100.00
2023-11-27T05:53:13.581Z,100.00
2023-11-27T05:58:18.160Z,100.00
2023-11-27T06:03:21.371Z,100.00
2023-11-27T06:08:24.557Z,100.00
2023-11-27T06:13:29.099Z,100.00
2023-11-27T06:18:32.473Z,100.00
2023-11-27T06:23:35.620Z,100.00
2023-11-27T06:28:40.234Z,100.00
2023-11-27T06:33:43.573Z,100.00
2023-11-27T06:38:47.197Z,100.00
2023-11-27T06:43:51.746Z,100.00
2023-11-27T06:48:54.870Z,100.00
2023-11-27T06:53:57.990Z,100.00
2023-11-27T06:59:02.690Z,100.00
2023-11-27T07:04:06.224Z,100.00
2023-11-27T07:09:11.990Z,100.00
2023-11-27T07:14:16.838Z,100.00
2023-11-27T07:19:20.093Z,100.00
2023-11-27T07:24:23.292Z,100.00
2023-11-27T07:29:28.366Z,100.00
2023-11-27T07:34:31.591Z,100.00
2023-11-27T07:39:34.773Z,100.00
2023-11-27T07:44:39.289Z,100.00
2023-11-27T07:49:42.395Z,100.00
2023-11-27T07:54:47.290Z,100.00
2023-11-27T07:59:52.990Z,100.00
2023-11-27T08:04:56.652Z,100.00
2023-11-27T08:09:59.830Z,100.00
2023-11-27T08:15:07.269Z,100.00
2023-11-27T08:20:12.606Z,100.00
2023-11-27T08:25:18.450Z,100.00
2023-11-27T08:30:25.583Z,100.00
2023-11-27T08:35:28.993Z,100.00
2023-11-27T08:40:32.276Z,100.00
2023-11-27T08:45:36.889Z,100.00
2023-11-27T08:50:40.267Z,100.00
2023-11-27T08:55:44.302Z,100.00
2023-11-27T09:00:49.526Z,100.00
2023-11-27T09:05:52.655Z,100.00
2023-11-27T09:10:55.925Z,100.00
2023-11-27T09:16:01.229Z,100.00
2023-11-27T09:21:04.833Z,100.00
2023-11-27T09:26:08.887Z,100.00
2023-11-27T09:31:13.466Z,100.00
2023-11-27T09:36:17.481Z,100.00
2023-11-27T09:41:20.627Z,100.00
2023-11-27T09:46:26.502Z,100.00
2023-11-27T09:51:33.234Z,100.00
2023-11-27T09:56:38.353Z,100.00
2023-11-27T10:01:44.392Z,100.00
2023-11-27T10:06:49.804Z,100.00
2023-11-27T10:11:53.065Z,100.00
2023-11-27T10:17:00.634Z,100.00
2023-11-27T10:22:03.869Z,100.00
2023-11-27T10:27:10.338Z,100.00
2023-11-27T10:32:15.365Z,100.00
2023-11-27T10:37:18.686Z,100.00
2023-11-27T10:42:27.450Z,100.00
2023-11-27T10:47:33.328Z,100.00
2023-11-27T10:52:37.078Z,100.00
2023-11-27T10:57:40.847Z,100.00
2023-11-27T11:02:52.297Z,100.00
2023-11-27T11:07:57.266Z,100.00
2023-11-27T11:13:03.478Z,100.00
2023-11-27T11:18:16.083Z,100.00
2023-11-27T11:23:29.508Z,93.67
2023-11-27T11:28:43.438Z,100.00
2023-11-27T11:33:48.901Z,99.16
2023-11-27T11:38:54.005Z,100.00
2023-11-27T11:43:59.784Z,89.42
2023-11-27T11:49:05.563Z,94.34
2023-11-27T11:54:11.012Z,91.96
2023-11-27T11:59:17.182Z,86.71
2023-11-27T12:04:23.372Z,90.73
2023-11-27T12:09:26.640Z,82.04
2023-11-27T12:14:33.689Z,85.47
2023-11-27T12:19:38.317Z,84.87
2023-11-27T12:24:47.919Z,81.82
2023-11-27T12:29:51.198Z,76.38
2023-11-27T12:34:55.677Z,77.78
2023-11-27T12:39:59.458Z,79.75
2023-11-27T12:45:07.580Z,84.64
2023-11-27T12:50:24.103Z,84.84
2023-11-27T12:55:32.236Z,87.02
2023-11-27T13:00:35.520Z,90.06
2023-11-27T13:05:39.937Z,94.33
2023-11-27T13:10:44.363Z,92.37
2023-11-27T13:15:47.578Z,97.09
2023-11-27T13:20:55.306Z,97.92
2023-11-27T13:26:11.415Z,98.43
2023-11-27T13:31:17.378Z,100.00
2023-11-27T13:36:22.869Z,100.00
2023-11-27T13:41:31.276Z,100.00
2023-11-27T13:46:34.859Z,100.00
2023-11-27T13:51:39.368Z,100.00
2023-11-27T13:56:42.516Z,100.00
2023-11-27T14:01:45.725Z,100.00
2023-11-27T14:06:52.316Z,100.00
2023-11-27T14:11:58.046Z,100.00
2023-11-27T14:17:20.078Z,100.00
2023-11-27T14:22:41.578Z,100.00
2023-11-27T14:28:00.687Z,100.00
2023-11-27T14:33:04.994Z,100.00
2023-11-27T14:38:09.475Z,100.00
2023-11-27T14:43:14.151Z,100.00
2023-11-27T14:48:21.114Z,100.00
2023-11-27T14:53:25.775Z,100.00
2023-11-27T14:58:28.878Z,100.00
2023-11-27T15:03:32.095Z,100.00
2023-11-27T15:08:36.661Z,100.00
2023-11-27T15:13:45.245Z,100.00
2023-11-27T15:18:48.592Z,100.00
2023-11-27T15:23:53.055Z,100.00
2023-11-27T15:28:56.203Z,100.00
2023-11-27T15:33:59.712Z,100.00
2023-11-27T15:39:16.729Z,100.00
2023-11-27T15:44:19.897Z,100.00
2023-11-27T15:49:23.089Z,100.00
2023-11-27T15:54:27.529Z,100.00
2023-11-27T15:59:30.592Z,100.00
2023-11-27T16:04:33.755Z,100.00
2023-11-27T16:09:40.461Z,100.00
2023-11-27T16:14:43.994Z,100.00
2023-11-27T16:19:47.075Z,100.00
2023-11-27T16:24:51.509Z,100.00
2023-11-27T16:29:55.221Z,100.00
2023-11-27T16:35:00.573Z,100.00
2023-11-27T16:40:15.827Z,100.00
2023-11-27T16:45:19.781Z,100.00
2023-11-27T16:50:26.059Z,100.00
2023-11-27T16:55:32.921Z,100.00
2023-11-27T17:00:38.286Z,100.00
2023-11-27T17:05:41.855Z,100.00
2023-11-27T17:10:51.503Z,100.00
2023-11-27T17:15:54.828Z,100.00
2023-11-27T17:20:57.969Z,100.00
2023-11-27T17:26:02.517Z,100.00
2023-11-27T17:31:06.689Z,100.00
2023-11-27T17:36:10.745Z,100.00
2023-11-27T17:41:17.677Z,100.00
2023-11-27T17:46:23.185Z,100.00
2023-11-27T17:51:26.453Z,100.00
2023-11-27T17:56:37.247Z,100.00
2023-11-27T18:01:45.156Z,100.00
2023-11-27T18:06:50.010Z,100.00
2023-11-27T18:11:56.065Z,100.00
2023-11-27T18:17:00.512Z,100.00
2023-11-27T18:22:04.036Z,100.00
2023-11-27T18:27:08.977Z,100.00
2023-11-27T18:32:14.088Z,100.00
2023-11-27T18:37:17.286Z,100.00
2023-11-27T18:42:36.392Z,100.00
2023-11-27T18:47:44.543Z,100.00
2023-11-27T18:52:48.907Z,100.00
2023-11-27T18:57:53.461Z,100.00
2023-11-27T19:02:56.704Z,100.00
2023-11-27T19:07:59.889Z,100.00
2023-11-27T19:13:09.155Z,100.00
2023-11-27T19:18:12.383Z,100.00
2023-11-27T19:23:15.562Z,100.00
2023-11-27T19:28:20.749Z,100.00
2023-11-27T19:33:23.876Z,100.00
2023-11-27T19:38:27.607Z,100.00
2023-11-27T19:43:32.618Z,100.00
2023-11-27T19:48:39.988Z,100.00
2023-11-27T19:53:43.546Z,100.00
2023-11-27T19:58:48.088Z,100.00
2023-11-27T20:03:51.730Z,100.00
2023-11-27T20:08:55.673Z,100.00
2023-11-27T20:14:00.502Z,100.00
2023-11-27T20:19:06.258Z,100.00
2023-11-27T20:24:09.924Z,100.00
2023-11-27T20:29:14.944Z,100.00
2023-11-27T20:34:18.108Z,100.00
2023-11-27T20:39:21.251Z,100.00
2023-11-27T20:44:25.750Z,100.00
2023-11-27T20:49:28.917Z,100.00
2023-11-27T20:54:32.486Z,100.00
2023-11-27T20:59:40.382Z,100.00
2023-11-27T21:04:43.550Z,100.00
2023-11-27T21:09:46.740Z,100.00
2023-11-27T21:14:52.095Z,100.00
2023-11-27T21:19:59.969Z,100.00
2023-11-27T21:25:03.661Z,100.00
2023-11-27T21:30:09.712Z,100.00
2023-11-27T21:35:13.264Z,100.00
2023-11-27T21:40:17.471Z,100.00
2023-11-27T21:45:21.987Z,100.00
2023-11-27T21:50:26.141Z,100.00
2023-11-27T21:55:30.493Z,100.00
2023-11-27T22:00:35.292Z,100.00
2023-11-27T22:05:38.581Z,100.00
2023-11-27T22:10:41.779Z,100.00
2023-11-27T22:15:46.352Z,100.00
2023-11-27T22:20:49.665Z,100.00
2023-11-27T22:25:53.251Z,100.00
2023-11-27T22:30:57.778Z,100.00
2023-11-27T22:36:00.893Z,100.00
2023-11-27T22:41:04.056Z,100.00
2023-11-27T22:46:10.395Z,100.00
2023-11-27T22:51:14.499Z,100.00
2023-11-27T22:56:21.798Z,100.00
2023-11-27T23:01:26.408Z,100.00
2023-11-27T23:06:36.700Z,100.00
2023-11-27T23:11:47.333Z,100.00
2023-11-27T23:16:51.909Z,100.00
2023-11-27T23:21:55.159Z,100.00
2023-11-27T23:26:58.313Z,100.00
2023-11-27T23:32:05.066Z,100.00
2023-11-27T23:37:09.695Z,100.00
2023-11-27T23:42:12.828Z,100.00
2023-11-27T23:47:17.386Z,100.00
2023-11-27T23:52:20.527Z,100.00
2023-11-27T23:57:23.685Z,100.00
